createdAt,value
2022-12-25T00:02:24.335Z,5.40
2022-12-25T00:05:12.535Z,5.50
2022-12-25T00:08:00.809Z,5.40
2022-12-25T00:10:48.932Z,5.40
2022-12-25T00:13:37.509Z,5.40
2022-12-25T00:16:27.880Z,5.40
2022-12-25T00:19:16.105Z,5.40
2022-12-25T00:22:04.308Z,5.40
2022-12-25T00:24:52.487Z,5.30
2022-12-25T00:27:41.231Z,5.30
2022-12-25T00:30:29.414Z,5.30
2022-12-25T00:33:19.131Z,5.20
2022-12-25T00:36:08.585Z,5.20
2022-12-25T00:38:56.716Z,5.10
2022-12-25T00:42:02.525Z,5.10
2022-12-25T00:44:51.539Z,5.10
2022-12-25T00:47:39.741Z,5.10
2022-12-25T00:50:29.261Z,5.20
2022-12-25T00:53:17.610Z,5.10
2022-12-25T00:56:07.879Z,5.10
2022-12-25T00:58:56.514Z,5.10
2022-12-25T01:01:44.985Z,5.10
2022-12-25T01:04:33.285Z,5.20
2022-12-25T01:07:24.331Z,5.20
2022-12-25T01:10:23.534Z,5.20
2022-12-25T01:13:11.775Z,5.30
2022-12-25T01:15:59.967Z,5.30
2022-12-25T01:18:48.424Z,5.30
2022-12-25T01:21:36.851Z,5.40
2022-12-25T01:24:26.464Z,5.40
2022-12-25T01:27:14.741Z,5.30
2022-12-25T01:30:02.979Z,5.40
2022-12-25T01:32:51.182Z,5.30
2022-12-25T01:35:40.539Z,5.20
2022-12-25T01:38:28.709Z,5.10
2022-12-25T01:41:21.004Z,5.10
2022-12-25T01:44:30.201Z,5.10
2022-12-25T01:47:19.586Z,5.00
2022-12-25T01:50:09.089Z,4.90
2022-12-25T01:52:58.804Z,4.80
2022-12-25T01:55:49.530Z,4.80
2022-12-25T01:58:39.310Z,4.80
2022-12-25T02:01:27.652Z,4.70
2022-12-25T02:04:22.285Z,4.70
2022-12-25T02:07:14.170Z,4.70
2022-12-25T02:10:02.379Z,4.70
2022-12-25T02:12:50.866Z,4.60
2022-12-25T02:15:48.623Z,4.50
2022-12-25T02:18:43.195Z,4.40
2022-12-25T02:21:55.664Z,4.30
2022-12-25T02:28:53.534Z,4.40
2022-12-25T02:31:50.005Z,4.40
2022-12-25T02:34:48.405Z,4.30
2022-12-25T02:37:41.681Z,4.40
2022-12-25T02:40:32.445Z,4.40
2022-12-25T02:43:43.243Z,4.40
2022-12-25T02:46:51.460Z,4.40
2022-12-25T02:49:58.521Z,4.40
2022-12-25T02:53:05.425Z,4.40
2022-12-25T02:56:12.919Z,4.30
2022-12-25T02:59:19.319Z,4.30
2022-12-25T03:02:23.832Z,4.30
2022-12-25T03:05:33.559Z,4.20
2022-12-25T03:08:26.700Z,4.10
2022-12-25T03:11:32.214Z,4.10
2022-12-25T03:14:37.728Z,4.00
2022-12-25T03:17:27.602Z,4.00
2022-12-25T03:20:33.240Z,4.00
2022-12-25T03:23:42.953Z,4.00
2022-12-25T03:26:48.911Z,4.00
2022-12-25T03:29:54.859Z,4.10
2022-12-25T03:32:58.611Z,4.00
2022-12-25T03:35:58.421Z,4.10
2022-12-25T03:39:19.075Z,4.10
2022-12-25T03:42:25.717Z,4.10
2022-12-25T03:45:38.849Z,4.00
2022-12-25T03:48:49.427Z,4.10
2022-12-25T03:51:57.290Z,4.10
2022-12-25T03:55:06.993Z,4.00
2022-12-25T03:58:12.795Z,4.00
2022-12-25T04:01:18.420Z,4.00
2022-12-25T04:04:25.722Z,4.00
2022-12-25T04:07:31.291Z,3.90
2022-12-25T04:10:37.117Z,3.90
2022-12-25T04:13:43.037Z,3.80
2022-12-25T04:16:49.020Z,3.80
2022-12-25T04:19:56.145Z,3.90
2022-12-25T04:23:01.938Z,3.90
2022-12-25T04:26:07.692Z,3.90
2022-12-25T04:29:13.625Z,3.90
2022-12-25T04:32:19.433Z,3.90
2022-12-25T04:35:27.512Z,3.90
2022-12-25T04:38:15.783Z,3.90
2022-12-25T04:41:04.396Z,3.90
2022-12-25T04:43:52.554Z,3.90
2022-12-25T04:46:40.707Z,3.80
2022-12-25T04:49:29.072Z,3.80
2022-12-25T04:52:18.560Z,3.80
2022-12-25T04:55:07.685Z,3.80
2022-12-25T04:57:55.836Z,3.70
2022-12-25T05:00:44.013Z,3.70
2022-12-25T05:03:32.705Z,3.60
2022-12-25T05:06:21.289Z,3.60
2022-12-25T05:09:10.983Z,3.60
2022-12-25T05:11:59.155Z,3.60
2022-12-25T05:14:48.002Z,3.50
2022-12-25T05:17:37.475Z,3.50
2022-12-25T05:20:25.845Z,3.50
2022-12-25T05:23:14.022Z,3.50
2022-12-25T05:26:06.970Z,3.50
2022-12-25T05:28:55.928Z,3.50
2022-12-25T05:31:44.206Z,3.50
2022-12-25T05:34:32.599Z,3.50
2022-12-25T05:37:20.717Z,3.50
2022-12-25T05:40:10.288Z,3.40
2022-12-25T05:42:59.912Z,3.40
2022-12-25T05:45:48.074Z,3.40
2022-12-25T05:48:38.239Z,3.40
2022-12-25T05:51:26.621Z,3.40
2022-12-25T05:54:14.805Z,3.50
2022-12-25T05:57:04.144Z,3.50
2022-12-25T05:59:53.635Z,3.50
2022-12-25T06:02:42.019Z,3.60
2022-12-25T06:05:30.976Z,3.60
2022-12-25T06:08:19.599Z,3.60
2022-12-25T06:11:09.475Z,3.60
2022-12-25T06:13:57.644Z,3.70
2022-12-25T06:16:47.257Z,3.70
2022-12-25T06:19:35.746Z,3.80
2022-12-25T06:22:24.080Z,3.80
2022-12-25T06:25:12.248Z,3.90
2022-12-25T06:28:00.404Z,3.90
2022-12-25T06:30:48.586Z,4.00
2022-12-25T06:33:38.264Z,4.00
2022-12-25T06:36:29.256Z,4.10
2022-12-25T06:39:17.752Z,4.00
2022-12-25T06:42:05.956Z,4.00
2022-12-25T06:44:54.224Z,4.10
2022-12-25T06:47:42.390Z,4.10
2022-12-25T06:50:31.988Z,4.20
2022-12-25T06:53:20.488Z,4.20
2022-12-25T06:56:10.766Z,4.20
2022-12-25T06:59:00.459Z,4.20
2022-12-25T07:01:51.017Z,4.30
2022-12-25T07:04:41.825Z,4.30
2022-12-25T07:07:31.326Z,4.30
2022-12-25T07:10:19.459Z,4.40
2022-12-25T07:13:07.641Z,4.30
2022-12-25T07:15:57.551Z,4.30
2022-12-25T07:18:45.736Z,4.30
2022-12-25T07:21:33.961Z,4.30
2022-12-25T07:24:24.670Z,4.30
2022-12-25T07:27:12.882Z,4.40
2022-12-25T07:30:01.040Z,4.40
2022-12-25T07:32:50.367Z,4.40
2022-12-25T07:35:38.780Z,4.50
2022-12-25T07:38:26.961Z,4.50
2022-12-25T07:41:16.585Z,4.50
2022-12-25T07:44:05.176Z,4.50
2022-12-25T07:46:53.363Z,4.50
2022-12-25T07:49:41.526Z,4.50
2022-12-25T07:52:29.749Z,4.50
2022-12-25T07:55:18.079Z,4.50
2022-12-25T07:58:07.571Z,4.50
2022-12-25T08:00:56.230Z,4.50
2022-12-25T08:03:44.898Z,4.40
2022-12-25T08:06:35.308Z,4.40
2022-12-25T08:09:23.623Z,4.40
2022-12-25T08:12:11.833Z,4.40
2022-12-25T08:15:01.343Z,4.30
2022-12-25T08:17:49.523Z,4.30
2022-12-25T08:20:38.099Z,4.40
2022-12-25T08:23:26.276Z,4.40
2022-12-25T08:26:16.194Z,4.40
2022-12-25T08:29:04.315Z,4.30
2022-12-25T08:31:54.852Z,4.30
2022-12-25T08:34:43.009Z,4.30
2022-12-25T08:37:31.443Z,4.30
2022-12-25T08:40:19.850Z,4.30
2022-12-25T08:43:08.017Z,4.30
2022-12-25T08:45:56.296Z,4.30
2022-12-25T08:48:47.194Z,4.40
2022-12-25T08:51:37.185Z,4.40
2022-12-25T08:54:25.755Z,4.50
2022-12-25T08:57:13.913Z,4.60
2022-12-25T09:00:02.075Z,4.60
2022-12-25T09:02:50.381Z,4.70
2022-12-25T09:05:39.976Z,4.70
2022-12-25T09:08:28.135Z,4.80
2022-12-25T09:11:17.364Z,4.80
2022-12-25T09:14:05.527Z,4.90
2022-12-25T09:16:53.699Z,5.00
2022-12-25T09:19:42.104Z,5.20
2022-12-25T09:22:31.809Z,5.40
2022-12-25T09:25:20.005Z,5.40
2022-12-25T09:28:08.208Z,5.60
2022-12-25T09:30:56.618Z,5.70
2022-12-25T09:33:44.745Z,5.90
2022-12-25T09:36:32.933Z,6.10
2022-12-25T09:39:23.283Z,6.10
2022-12-25T09:42:15.738Z,6.20
2022-12-25T09:45:11.419Z,6.30
2022-12-25T09:47:59.919Z,6.40
2022-12-25T09:50:52.881Z,6.60
2022-12-25T09:53:45.280Z,6.70
2022-12-25T09:56:35.171Z,6.80
2022-12-25T09:59:26.199Z,6.90
2022-12-25T10:02:35.068Z,6.90
2022-12-25T10:05:48.474Z,7.00
2022-12-25T10:08:59.004Z,7.10
2022-12-25T10:12:00.648Z,7.20
2022-12-25T10:15:06.801Z,7.20
2022-12-25T10:18:23.423Z,7.30
2022-12-25T10:21:15.298Z,7.40
2022-12-25T10:24:11.352Z,7.40
2022-12-25T10:27:04.034Z,7.40
2022-12-25T10:29:54.876Z,7.40
2022-12-25T10:32:44.059Z,7.40
2022-12-25T10:35:32.932Z,7.50
2022-12-25T10:38:21.643Z,7.60
2022-12-25T10:41:22.036Z,7.70
2022-12-25T10:44:20.145Z,7.80
2022-12-25T10:47:08.286Z,8.00
2022-12-25T10:49:57.665Z,8.00
2022-12-25T10:52:57.121Z,8.10
2022-12-25T10:55:55.514Z,8.10
2022-12-25T10:58:44.057Z,8.10
2022-12-25T11:01:33.998Z,8.20
2022-12-25T11:04:25.714Z,8.20
2022-12-25T11:07:20.871Z,8.20
2022-12-25T11:10:24.342Z,8.20
2022-12-25T11:13:21.902Z,8.30
2022-12-25T11:16:14.971Z,8.30
2022-12-25T11:19:22.520Z,8.50
2022-12-25T11:22:19.049Z,8.50
2022-12-25T11:25:14.174Z,8.60
2022-12-25T11:28:04.610Z,8.60
2022-12-25T11:30:57.564Z,8.60
2022-12-25T11:33:54.226Z,8.60
2022-12-25T11:36:48.027Z,8.60
2022-12-25T11:39:38.325Z,8.50
2022-12-25T11:42:32.270Z,8.50
2022-12-25T11:45:25.304Z,8.30
2022-12-25T11:48:18.221Z,8.20
2022-12-25T11:51:08.428Z,8.10
2022-12-25T11:54:05.045Z,8.10
2022-12-25T11:56:53.817Z,8.10
2022-12-25T11:59:53.190Z,8.10
2022-12-25T12:02:46.539Z,8.20
2022-12-25T12:05:39.893Z,8.30
2022-12-25T12:08:28.216Z,8.30
2022-12-25T12:11:21.200Z,8.40
2022-12-25T12:14:25.065Z,8.40
2022-12-25T12:17:15.060Z,8.40
2022-12-25T12:20:13.006Z,8.40
2022-12-25T12:23:02.816Z,8.40
2022-12-25T12:25:51.350Z,8.40
2022-12-25T12:28:46.736Z,8.50
2022-12-25T12:31:39.742Z,8.50
2022-12-25T12:34:30.968Z,8.60
2022-12-25T12:37:26.469Z,8.60
2022-12-25T12:40:32.310Z,8.60
2022-12-25T12:43:35.455Z,8.70
2022-12-25T12:46:30.993Z,8.70
2022-12-25T12:49:23.961Z,8.70
2022-12-25T12:52:27.101Z,8.70
2022-12-25T12:55:16.955Z,8.70
2022-12-25T12:58:07.237Z,8.70
2022-12-25T13:01:03.883Z,8.70
2022-12-25T13:04:21.845Z,8.70
2022-12-25T13:07:30.295Z,8.80
2022-12-25T13:10:26.665Z,8.70
2022-12-25T13:13:19.164Z,8.80
2022-12-25T13:16:17.797Z,8.80
2022-12-25T13:19:13.381Z,8.80
2022-12-25T13:22:21.429Z,8.80
2022-12-25T13:25:24.233Z,8.80
2022-12-25T13:28:20.201Z,8.80
2022-12-25T13:31:17.476Z,8.70
2022-12-25T13:34:07.852Z,8.70
2022-12-25T13:36:56.917Z,8.70
2022-12-25T13:39:51.576Z,8.60
2022-12-25T13:42:41.143Z,8.60
2022-12-25T13:45:31.631Z,8.60
2022-12-25T13:48:20.850Z,8.50
2022-12-25T13:51:17.001Z,8.40
2022-12-25T13:54:06.676Z,8.40
2022-12-25T13:56:56.310Z,8.30
2022-12-25T13:59:46.444Z,8.30
2022-12-25T14:02:38.072Z,8.40
2022-12-25T14:05:29.331Z,8.40
2022-12-25T14:08:20.126Z,8.30
2022-12-25T14:11:09.699Z,8.30
2022-12-25T14:14:00.926Z,8.30
2022-12-25T14:16:53.462Z,8.30
2022-12-25T14:19:41.738Z,8.20
2022-12-25T14:22:32.121Z,8.20
2022-12-25T14:25:21.429Z,8.20
2022-12-25T14:28:19.038Z,8.20
2022-12-25T14:31:07.579Z,8.20
2022-12-25T14:33:58.968Z,8.20
2022-12-25T14:36:47.685Z,8.20
2022-12-25T14:39:38.189Z,8.20
2022-12-25T14:42:28.490Z,8.20
2022-12-25T14:45:28.647Z,8.20
2022-12-25T14:48:24.472Z,8.20
2022-12-25T14:51:19.220Z,8.20
2022-12-25T14:54:18.011Z,8.20
2022-12-25T14:57:06.698Z,8.20
2022-12-25T15:00:05.292Z,8.20
2022-12-25T15:02:55.369Z,8.20
2022-12-25T15:05:43.598Z,8.20
2022-12-25T15:08:35.171Z,8.30
2022-12-25T15:11:23.364Z,8.20
2022-12-25T15:14:11.529Z,8.30
2022-12-25T15:17:02.401Z,8.20
2022-12-25T15:19:50.665Z,8.30
2022-12-25T15:23:02.055Z,8.30
2022-12-25T15:25:48.648Z,8.20
2022-12-25T15:28:37.145Z,8.20
2022-12-25T15:31:27.350Z,8.20
2022-12-25T15:34:17.814Z,8.20
2022-12-25T15:37:05.993Z,8.20
2022-12-25T15:39:57.439Z,8.20
2022-12-25T15:42:49.989Z,8.20
2022-12-25T15:45:38.273Z,8.20
2022-12-25T15:48:26.470Z,8.30
2022-12-25T15:51:14.714Z,8.30
2022-12-25T15:54:03.166Z,8.30
2022-12-25T15:56:55.098Z,8.20
2022-12-25T15:59:44.702Z,8.30
2022-12-25T16:02:32.948Z,8.30
2022-12-25T16:05:22.491Z,8.40
2022-12-25T16:08:14.611Z,8.30
2022-12-25T16:11:05.606Z,8.40
2022-12-25T16:13:53.775Z,8.40
2022-12-25T16:16:53.186Z,8.40
2022-12-25T16:19:41.363Z,8.50
2022-12-25T16:22:29.971Z,8.50
2022-12-25T16:25:20.342Z,8.50
2022-12-25T16:28:10.288Z,8.50
2022-12-25T16:30:58.584Z,8.50
2022-12-25T16:33:48.032Z,8.50
2022-12-25T16:36:36.963Z,8.50
2022-12-25T16:39:25.326Z,8.50
2022-12-25T16:42:13.463Z,8.60
2022-12-25T16:45:01.618Z,8.60
2022-12-25T16:47:49.909Z,8.60
2022-12-25T16:50:40.791Z,8.60
2022-12-25T16:53:30.577Z,8.60
2022-12-25T16:56:20.481Z,8.60
2022-12-25T16:59:08.679Z,8.60
2022-12-25T17:01:57.050Z,8.60
2022-12-25T17:04:46.224Z,8.60
2022-12-25T17:07:36.970Z,8.60
2022-12-25T17:10:25.137Z,8.60
2022-12-25T17:13:13.270Z,8.60
2022-12-25T17:16:01.551Z,8.50
2022-12-25T17:18:55.220Z,8.60
2022-12-25T17:21:43.417Z,8.60
2022-12-25T17:24:34.999Z,8.60
2022-12-25T17:27:25.127Z,8.60
2022-12-25T17:30:16.643Z,8.60
2022-12-25T17:33:07.677Z,8.60
2022-12-25T17:36:01.870Z,8.60
2022-12-25T17:38:51.849Z,8.60
2022-12-25T17:41:41.614Z,8.60
2022-12-25T17:44:29.783Z,8.70
2022-12-25T17:47:18.321Z,8.80
2022-12-25T17:50:07.972Z,8.80
2022-12-25T17:52:56.090Z,8.80
2022-12-25T17:55:44.434Z,8.80
2022-12-25T17:58:34.254Z,8.80
2022-12-25T18:01:24.186Z,8.80
2022-12-25T18:04:12.610Z,8.80
2022-12-25T18:07:00.805Z,8.80
2022-12-25T18:09:49.999Z,8.90
2022-12-25T18:12:38.222Z,8.80
2022-12-25T18:15:27.747Z,8.70
2022-12-25T18:18:16.440Z,8.70
2022-12-25T18:21:04.790Z,8.70
2022-12-25T18:23:56.154Z,8.70
2022-12-25T18:26:45.595Z,8.80
2022-12-25T18:29:33.741Z,8.80
2022-12-25T18:32:27.862Z,8.80
2022-12-25T18:35:16.506Z,8.80
2022-12-25T18:38:05.582Z,8.80
2022-12-25T18:40:54.322Z,8.70
2022-12-25T18:43:53.253Z,8.70
2022-12-25T18:46:43.366Z,8.80
2022-12-25T18:49:33.689Z,8.80
2022-12-25T18:52:50.230Z,8.70
2022-12-25T18:55:30.141Z,8.70
2022-12-25T18:58:19.275Z,8.70
2022-12-25T19:01:18.707Z,8.80
2022-12-25T19:04:10.629Z,8.70
2022-12-25T19:07:00.088Z,8.80
2022-12-25T19:09:48.241Z,8.70
2022-12-25T19:12:36.467Z,8.70
2022-12-25T19:15:24.705Z,8.70
2022-12-25T19:18:13.220Z,8.70
2022-12-25T19:21:02.703Z,8.70
2022-12-25T19:23:54.414Z,8.70
2022-12-25T19:26:43.943Z,8.80
2022-12-25T19:29:32.705Z,8.80
2022-12-25T19:32:20.985Z,8.80
2022-12-25T19:35:09.545Z,8.80
2022-12-25T19:37:57.736Z,8.80
2022-12-25T19:41:01.130Z,8.80
2022-12-25T19:43:50.082Z,8.80
2022-12-25T19:46:40.749Z,8.90
2022-12-25T19:49:29.000Z,8.90
2022-12-25T19:52:17.169Z,9.00
2022-12-25T19:55:05.861Z,9.00
2022-12-25T19:57:57.937Z,9.00
2022-12-25T20:00:46.167Z,9.00
2022-12-25T20:03:37.559Z,9.00
2022-12-25T20:06:33.767Z,9.00
2022-12-25T20:09:22.012Z,9.00
2022-12-25T20:12:11.262Z,9.10
2022-12-25T20:15:00.990Z,9.10
2022-12-25T20:17:49.234Z,9.10
2022-12-25T20:20:37.597Z,9.10
2022-12-25T20:23:26.323Z,9.10
2022-12-25T20:26:15.476Z,9.10
2022-12-25T20:29:04.574Z,9.00
2022-12-25T20:31:54.247Z,9.00
2022-12-25T20:34:42.451Z,9.00
2022-12-25T20:37:30.608Z,9.00
2022-12-25T20:40:18.982Z,9.00
2022-12-25T20:43:07.196Z,9.10
2022-12-25T20:45:55.532Z,9.00
2022-12-25T20:48:45.474Z,9.00
2022-12-25T20:51:33.935Z,9.10
2022-12-25T20:54:22.256Z,9.10
2022-12-25T20:57:10.464Z,9.20
2022-12-25T20:59:58.747Z,9.20
2022-12-25T21:02:47.051Z,9.30
2022-12-25T21:05:49.673Z,9.30
2022-12-25T21:08:38.704Z,9.40
2022-12-25T21:11:27.120Z,9.40
2022-12-25T21:14:15.263Z,9.50
2022-12-25T21:17:03.500Z,9.50
2022-12-25T21:19:51.771Z,9.50
2022-12-25T21:22:41.632Z,9.60
2022-12-25T21:25:29.758Z,9.60
2022-12-25T21:28:18.206Z,9.60
2022-12-25T21:31:07.334Z,9.60
2022-12-25T21:33:55.707Z,9.60
2022-12-25T21:36:43.877Z,9.60
2022-12-25T21:39:33.384Z,9.60
2022-12-25T21:42:21.489Z,9.70
2022-12-25T21:45:10.247Z,9.70
2022-12-25T21:48:02.046Z,9.80
2022-12-25T21:51:09.066Z,9.80
2022-12-25T21:53:57.334Z,9.80
2022-12-25T21:56:48.533Z,9.90
2022-12-25T21:59:38.181Z,9.90
2022-12-25T22:02:26.446Z,9.90
2022-12-25T22:05:34.758Z,10.00
2022-12-25T22:08:22.004Z,10.00
2022-12-25T22:11:30.918Z,10.10
2022-12-25T22:14:51.008Z,10.10
2022-12-25T22:18:01.238Z,10.10
2022-12-25T22:20:49.772Z,10.10
2022-12-25T22:23:38.253Z,10.10
2022-12-25T22:26:26.430Z,10.10
2022-12-25T22:29:14.597Z,10.10
2022-12-25T22:32:04.527Z,10.20
2022-12-25T22:34:54.850Z,10.20
2022-12-25T22:37:45.868Z,10.20
2022-12-25T22:40:42.112Z,10.20
2022-12-25T22:44:14.410Z,10.20
2022-12-25T22:46:44.901Z,10.30
2022-12-25T22:49:34.874Z,10.30
2022-12-25T22:52:23.166Z,10.30
2022-12-25T22:55:17.118Z,10.30
2022-12-25T22:58:05.398Z,10.30
2022-12-25T23:00:53.535Z,10.30
2022-12-25T23:03:43.143Z,10.30
2022-12-25T23:06:33.158Z,10.40
2022-12-25T23:09:27.674Z,10.40
2022-12-25T23:12:29.933Z,10.30
2022-12-25T23:15:18.306Z,10.30
2022-12-25T23:18:24.275Z,10.40
2022-12-25T23:21:31.106Z,10.40
2022-12-25T23:24:38.352Z,10.40
2022-12-25T23:27:26.581Z,10.40
2022-12-25T23:30:17.277Z,10.40
2022-12-25T23:33:05.401Z,10.40
2022-12-25T23:35:53.571Z,10.40
2022-12-25T23:38:41.756Z,10.50
2022-12-25T23:41:31.270Z,10.50
2022-12-25T23:44:19.507Z,10.50
2022-12-25T23:47:07.707Z,10.50
2022-12-25T23:49:55.939Z,10.50
2022-12-25T23:52:44.624Z,10.60
2022-12-25T23:55:34.341Z,10.60
2022-12-25T23:58:23.900Z,10.70
